createdAt,value
2022-12-04T00:00:41.563Z,-7.66
2022-12-04T00:03:15.191Z,-7.70
2022-12-04T00:05:48.588Z,-7.69
2022-12-04T00:08:22.066Z,-7.73
2022-12-04T00:10:55.831Z,-7.74
2022-12-04T00:13:29.275Z,-7.77
2022-12-04T00:16:04.481Z,-7.81
2022-12-04T00:18:38.677Z,-7.88
2022-12-04T00:21:14.520Z,-7.88
2022-12-04T00:23:48.776Z,-7.85
2022-12-04T00:26:24.122Z,-7.93
2022-12-04T00:28:58.173Z,-7.90
2022-12-04T00:31:32.294Z,-7.82
2022-12-04T00:34:08.222Z,-7.80
2022-12-04T00:36:40.884Z,-7.82
2022-12-04T00:39:14.158Z,-7.78
2022-12-04T00:41:47.505Z,-7.82
2022-12-04T00:44:20.797Z,-7.83
2022-12-04T00:46:54.109Z,-7.86
2022-12-04T00:49:27.383Z,-7.85
2022-12-04T00:52:00.626Z,-7.92
2022-12-04T00:54:35.198Z,-7.98
2022-12-04T00:57:08.856Z,-8.01
2022-12-04T00:59:42.633Z,-8.12
2022-12-04T01:02:16.602Z,-8.14
2022-12-04T01:04:50.362Z,-8.11
2022-12-04T01:07:23.861Z,-8.17
2022-12-04T01:09:57.648Z,-8.24
2022-12-04T01:12:31.446Z,-8.28
2022-12-04T01:15:05.370Z,-8.33
2022-12-04T01:17:39.079Z,-8.35
2022-12-04T01:20:15.028Z,-8.39
2022-12-04T01:22:48.297Z,-8.43
2022-12-04T01:25:21.938Z,-8.49
2022-12-04T01:27:55.314Z,-8.51
2022-12-04T01:30:29.138Z,-8.48
2022-12-04T01:33:02.589Z,-8.47
2022-12-04T01:35:36.246Z,-8.54
2022-12-04T01:38:09.826Z,-8.56
2022-12-04T01:40:47.193Z,-8.54
2022-12-04T01:43:21.306Z,-8.55
2022-12-04T01:45:56.719Z,-8.62
2022-12-04T01:48:32.874Z,-8.72
2022-12-04T01:51:10.185Z,-8.73
2022-12-04T01:53:45.926Z,-8.84
2022-12-04T01:56:24.351Z,-8.85
2022-12-04T01:59:00.385Z,-8.87
2022-12-04T02:01:36.808Z,-8.88
2022-12-04T02:04:10.542Z,-8.92
2022-12-04T02:06:44.122Z,-8.93
2022-12-04T02:09:23.010Z,-8.92
2022-12-04T02:11:56.569Z,-8.94
2022-12-04T02:14:35.675Z,-8.99
2022-12-04T02:17:13.639Z,-9.04
2022-12-04T02:20:04.250Z,-9.06
2022-12-04T02:22:49.420Z,-9.06
2022-12-04T02:25:27.580Z,-9.11
2022-12-04T02:28:09.095Z,-9.12
2022-12-04T02:30:45.768Z,-9.08
2022-12-04T02:33:24.110Z,-9.12
2022-12-04T02:36:01.074Z,-9.14
2022-12-04T02:38:37.888Z,-9.19
2022-12-04T02:41:15.185Z,-9.22
2022-12-04T02:43:51.530Z,-9.24
2022-12-04T02:46:27.808Z,-9.27
2022-12-04T02:49:03.682Z,-9.26
2022-12-04T02:51:39.999Z,-9.27
2022-12-04T02:54:16.214Z,-9.25
2022-12-04T02:56:51.908Z,-9.31
2022-12-04T02:59:28.539Z,-9.32
2022-12-04T03:02:04.951Z,-9.33
2022-12-04T03:04:40.465Z,-9.28
2022-12-04T03:07:17.336Z,-9.34
2022-12-04T03:09:56.649Z,-9.39
2022-12-04T03:12:33.228Z,-9.37
2022-12-04T03:15:10.597Z,-9.33
2022-12-04T03:17:44.165Z,-9.40
2022-12-04T03:20:20.574Z,-9.40
2022-12-04T03:22:57.327Z,-9.45
2022-12-04T03:25:34.070Z,-9.47
2022-12-04T03:28:10.789Z,-9.47
2022-12-04T03:30:47.291Z,-9.49
2022-12-04T03:33:23.891Z,-9.47
2022-12-04T03:36:00.182Z,-9.42
2022-12-04T03:38:36.556Z,-9.44
2022-12-04T03:41:12.914Z,-9.42
2022-12-04T03:43:49.733Z,-9.41
2022-12-04T03:46:26.765Z,-9.43
2022-12-04T03:49:03.616Z,-9.50
2022-12-04T03:51:39.923Z,-9.48
2022-12-04T03:54:16.323Z,-9.52
2022-12-04T03:56:53.570Z,-9.51
2022-12-04T03:59:30.044Z,-9.53
2022-12-04T04:02:06.619Z,-9.53
2022-12-04T04:04:42.369Z,-9.54
2022-12-04T04:07:18.562Z,-9.55
2022-12-04T04:09:55.162Z,-9.53
2022-12-04T04:12:31.829Z,-9.53
2022-12-04T04:15:45.103Z,-9.55
2022-12-04T04:21:18.983Z,-9.48
2022-12-04T04:24:11.490Z,-9.58
2022-12-04T04:26:48.049Z,-9.64
2022-12-04T04:29:21.694Z,-9.72
2022-12-04T04:31:57.911Z,-9.73
2022-12-04T04:34:34.606Z,-9.71
2022-12-04T04:37:10.775Z,-9.70
2022-12-04T04:39:47.126Z,-9.71
2022-12-04T04:42:24.421Z,-9.74
2022-12-04T04:45:01.689Z,-9.73
2022-12-04T04:47:35.896Z,-9.78
2022-12-04T04:50:12.970Z,-9.78
2022-12-04T04:52:48.908Z,-9.84
2022-12-04T04:55:23.180Z,-9.84
2022-12-04T04:57:57.984Z,-9.85
2022-12-04T05:00:31.933Z,-9.84
2022-12-04T05:03:05.753Z,-9.85
2022-12-04T05:05:39.345Z,-9.86
2022-12-04T05:08:12.837Z,-9.87
2022-12-04T05:10:46.356Z,-9.86
2022-12-04T05:13:20.695Z,-9.84
2022-12-04T05:16:00.711Z,-9.80
2022-12-04T05:18:35.545Z,-9.86
2022-12-04T05:21:10.855Z,-9.85
2022-12-04T05:23:44.525Z,-9.83
2022-12-04T05:26:18.250Z,-9.82
2022-12-04T05:28:51.821Z,-9.84
2022-12-04T05:31:25.653Z,-9.83
2022-12-04T05:33:59.174Z,-9.80
2022-12-04T05:36:32.932Z,-9.75
2022-12-04T05:39:06.382Z,-9.74
2022-12-04T05:41:39.836Z,-9.72
2022-12-04T05:44:13.600Z,-9.66
2022-12-04T05:46:47.334Z,-9.66
2022-12-04T05:49:20.873Z,-9.62
2022-12-04T05:51:54.554Z,-9.60
2022-12-04T05:54:28.156Z,-9.56
2022-12-04T05:57:02.029Z,-9.51
2022-12-04T05:59:35.505Z,-9.47
2022-12-04T06:02:08.752Z,-9.40
2022-12-04T06:04:42.556Z,-9.33
2022-12-04T06:07:16.069Z,-9.32
2022-12-04T06:09:49.652Z,-9.27
2022-12-04T06:12:23.081Z,-9.22
2022-12-04T06:14:56.923Z,-9.15
2022-12-04T06:17:30.578Z,-9.07
2022-12-04T06:20:09.521Z,-8.84
2022-12-04T06:22:39.610Z,-8.35
2022-12-04T06:25:13.597Z,-8.09
2022-12-04T06:27:47.220Z,-7.85
2022-12-04T06:30:20.915Z,-7.44
2022-12-04T06:32:54.455Z,-7.06
2022-12-04T06:35:27.528Z,-6.84
2022-12-04T06:38:01.213Z,-6.81
2022-12-04T06:40:34.920Z,-6.71
2022-12-04T06:43:08.382Z,-6.47
2022-12-04T06:45:41.776Z,-6.36
2022-12-04T06:48:15.400Z,-6.32
2022-12-04T06:50:49.743Z,-6.09
2022-12-04T06:53:23.196Z,-5.84
2022-12-04T06:55:56.719Z,-5.53
2022-12-04T06:58:30.848Z,-4.99
2022-12-04T07:01:08.702Z,-4.66
2022-12-04T07:03:47.832Z,-4.32
2022-12-04T07:06:19.231Z,-4.28
2022-12-04T07:08:54.658Z,-3.93
2022-12-04T07:11:28.692Z,-3.60
2022-12-04T07:14:02.525Z,-3.57
2022-12-04T07:16:40.769Z,-3.41
2022-12-04T07:19:11.264Z,-3.22
2022-12-04T07:21:44.834Z,-3.11
2022-12-04T07:24:19.786Z,-3.02
2022-12-04T07:26:53.444Z,-2.80
2022-12-04T07:29:26.936Z,-2.33
2022-12-04T07:32:00.691Z,-1.91
2022-12-04T07:34:35.806Z,-1.71
2022-12-04T07:37:09.157Z,-1.58
2022-12-04T07:39:42.770Z,-1.44
2022-12-04T07:42:19.717Z,-0.96
2022-12-04T07:44:51.379Z,-0.57
2022-12-04T07:47:24.875Z,-0.42
2022-12-04T07:49:58.518Z,-0.42
2022-12-04T07:52:32.035Z,-0.36
2022-12-04T07:55:06.600Z,-0.60
2022-12-04T07:57:40.205Z,-0.75
2022-12-04T08:00:16.773Z,-1.49
2022-12-04T08:02:50.928Z,-1.63
2022-12-04T08:05:24.316Z,-1.62
2022-12-04T08:07:57.693Z,-1.92
2022-12-04T08:10:31.000Z,-2.24
2022-12-04T08:13:04.666Z,-2.21
2022-12-04T08:15:38.140Z,-2.44
2022-12-04T08:18:11.858Z,-2.33
2022-12-04T08:20:45.488Z,-2.08
2022-12-04T08:23:19.008Z,-2.02
2022-12-04T08:25:52.350Z,-2.02
2022-12-04T08:28:26.014Z,-2.33
2022-12-04T08:31:04.959Z,-2.38
2022-12-04T08:33:38.574Z,-2.39
2022-12-04T08:36:15.181Z,-2.73
2022-12-04T08:38:49.711Z,-2.95
2022-12-04T08:41:26.254Z,-3.34
2022-12-04T08:44:01.073Z,-3.78
2022-12-04T08:46:35.026Z,-4.06
2022-12-04T08:49:08.478Z,-4.09
2022-12-04T08:51:42.378Z,-3.64
2022-12-04T08:54:16.778Z,-3.06
2022-12-04T08:56:50.110Z,-2.33
2022-12-04T08:59:23.405Z,-2.19
2022-12-04T09:01:57.236Z,-1.96
2022-12-04T09:04:30.868Z,-1.52
2022-12-04T09:07:04.498Z,-1.21
2022-12-04T09:09:38.011Z,-1.21
2022-12-04T09:12:11.178Z,-1.39
2022-12-04T09:14:44.828Z,-1.31
2022-12-04T09:17:18.528Z,-1.34
2022-12-04T09:19:55.500Z,-1.29
2022-12-04T09:22:40.393Z,-1.13
2022-12-04T09:25:02.272Z,-1.00
2022-12-04T09:27:41.498Z,-0.83
2022-12-04T09:30:16.215Z,-0.52
2022-12-04T09:32:49.880Z,-0.21
2022-12-04T09:35:23.278Z,0.24
2022-12-04T09:37:56.888Z,0.30
2022-12-04T09:40:37.631Z,0.30
2022-12-04T09:43:10.336Z,-0.05
2022-12-04T09:45:46.906Z,-0.38
2022-12-04T09:48:22.687Z,-0.58
2022-12-04T09:50:56.658Z,-0.69
2022-12-04T09:53:34.917Z,-0.80
2022-12-04T09:56:12.482Z,-0.98
2022-12-04T09:58:48.939Z,-1.04
2022-12-04T10:01:26.152Z,-1.06
2022-12-04T10:04:05.750Z,-0.96
2022-12-04T10:06:37.373Z,-1.15
2022-12-04T10:09:13.669Z,-1.34
2022-12-04T10:11:52.420Z,-1.60
2022-12-04T10:15:01.404Z,-1.90
2022-12-04T10:17:56.001Z,-2.00
2022-12-04T10:20:44.817Z,-1.97
2022-12-04T10:23:21.746Z,-1.36
2022-12-04T10:25:56.641Z,-1.02
2022-12-04T10:28:33.196Z,-0.76
2022-12-04T10:31:09.220Z,-0.55
2022-12-04T10:33:47.503Z,-0.39
2022-12-04T10:36:23.948Z,-0.18
2022-12-04T10:39:01.092Z,0.26
2022-12-04T10:41:38.869Z,0.14
2022-12-04T10:44:12.186Z,0.03
2022-12-04T10:46:46.642Z,-0.09
2022-12-04T10:49:22.822Z,-0.59
2022-12-04T10:51:57.448Z,-0.82
2022-12-04T10:54:33.805Z,-1.04
2022-12-04T10:57:09.487Z,-1.14
2022-12-04T10:59:51.465Z,-0.97
2022-12-04T11:02:29.292Z,-0.83
2022-12-04T11:05:04.436Z,-0.98
2022-12-04T11:07:40.567Z,-1.07
2022-12-04T11:10:24.833Z,-1.38
2022-12-04T11:13:00.372Z,-1.79
2022-12-04T11:15:35.279Z,-2.03
2022-12-04T11:18:16.049Z,-1.87
2022-12-04T11:20:56.018Z,-1.75
2022-12-04T11:23:31.527Z,-1.77
2022-12-04T11:26:06.364Z,-1.72
2022-12-04T11:28:42.739Z,-1.72
2022-12-04T11:31:21.754Z,-2.03
2022-12-04T11:33:57.306Z,-2.12
2022-12-04T11:36:33.591Z,-2.38
2022-12-04T11:39:10.495Z,-2.59
2022-12-04T11:41:44.044Z,-2.68
2022-12-04T11:44:27.046Z,-2.54
2022-12-04T11:47:02.851Z,-2.87
2022-12-04T11:49:42.233Z,-3.14
2022-12-04T11:52:19.096Z,-3.49
2022-12-04T11:54:59.238Z,-3.71
2022-12-04T11:57:38.159Z,-4.01
2022-12-04T12:00:16.803Z,-4.05
2022-12-04T12:06:12.366Z,-4.56
2022-12-04T12:08:59.210Z,-4.88
2022-12-04T12:11:35.993Z,-5.05
2022-12-04T12:14:15.467Z,-5.24
2022-12-04T12:16:56.267Z,-5.50
2022-12-04T12:19:47.358Z,-5.70
2022-12-04T12:22:28.192Z,-5.82
2022-12-04T12:25:05.941Z,-5.98
2022-12-04T12:27:48.205Z,-6.08
2022-12-04T12:30:24.004Z,-6.21
2022-12-04T12:33:12.248Z,-6.39
2022-12-04T12:35:49.359Z,-6.53
2022-12-04T12:38:25.472Z,-6.62
2022-12-04T12:41:02.275Z,-6.64
2022-12-04T12:43:39.375Z,-6.74
2022-12-04T12:46:16.594Z,-6.81
2022-12-04T12:48:58.106Z,-6.92
2022-12-04T12:51:33.800Z,-6.92
2022-12-04T12:54:15.796Z,-6.98
2022-12-04T12:56:51.958Z,-7.05
2022-12-04T12:59:28.310Z,-7.05
2022-12-04T13:02:05.366Z,-7.10
2022-12-04T13:04:42.286Z,-7.15
2022-12-04T13:07:27.216Z,-7.20
2022-12-04T13:10:04.782Z,-7.26
2022-12-04T13:12:41.139Z,-7.28
2022-12-04T13:15:18.751Z,-7.32
2022-12-04T13:17:52.342Z,-7.35
2022-12-04T13:20:28.583Z,-7.34
2022-12-04T13:23:11.272Z,-7.40
2022-12-04T13:25:50.756Z,-7.48
2022-12-04T13:28:34.077Z,-7.50
2022-12-04T13:31:13.993Z,-7.51
2022-12-04T13:34:13.256Z,-7.58
2022-12-04T13:37:12.967Z,-7.63
2022-12-04T13:40:37.211Z,-7.69
2022-12-04T13:43:22.001Z,-7.69
2022-12-04T13:45:58.251Z,-7.74
2022-12-04T13:48:40.612Z,-7.77
2022-12-04T13:51:39.993Z,-7.72
2022-12-04T13:54:27.018Z,-7.68
2022-12-04T13:57:13.729Z,-7.71
2022-12-04T13:59:48.943Z,-7.74
2022-12-04T14:02:29.181Z,-7.74
2022-12-04T14:05:05.860Z,-7.75
2022-12-04T14:07:41.128Z,-7.76
2022-12-04T14:10:29.779Z,-7.77
2022-12-04T14:13:06.067Z,-7.81
2022-12-04T14:15:41.682Z,-7.81
2022-12-04T14:18:23.550Z,-7.82
2022-12-04T14:21:04.344Z,-7.84
2022-12-04T14:23:40.815Z,-7.87
2022-12-04T14:26:48.951Z,-7.90
2022-12-04T14:29:19.017Z,-7.87
2022-12-04T14:31:53.602Z,-7.90
2022-12-04T14:35:02.479Z,-7.97
2022-12-04T14:37:48.472Z,-7.94
2022-12-04T14:40:31.256Z,-7.98
2022-12-04T14:43:09.965Z,-7.94
2022-12-04T14:45:49.888Z,-7.94
2022-12-04T14:48:30.873Z,-7.98
2022-12-04T14:51:08.967Z,-7.98
2022-12-04T14:53:45.788Z,-7.95
2022-12-04T14:56:28.012Z,-8.01
2022-12-04T14:59:02.918Z,-8.01
2022-12-04T15:01:38.441Z,-8.03
2022-12-04T15:04:17.660Z,-8.04
2022-12-04T15:06:56.915Z,-8.04
2022-12-04T15:09:45.387Z,-8.04
2022-12-04T15:12:37.323Z,-8.07
2022-12-04T15:15:21.433Z,-8.09
2022-12-04T15:18:02.882Z,-8.11
2022-12-04T15:20:39.511Z,-8.09
2022-12-04T15:23:15.030Z,-8.12
2022-12-04T15:25:50.934Z,-8.12
2022-12-04T15:28:26.888Z,-8.11
2022-12-04T15:31:02.383Z,-8.12
2022-12-04T15:33:38.676Z,-8.12
2022-12-04T15:36:16.118Z,-8.12
2022-12-04T15:38:51.132Z,-8.11
2022-12-04T15:41:34.303Z,-8.16
2022-12-04T15:44:24.807Z,-8.19
2022-12-04T15:47:00.942Z,-8.24
2022-12-04T15:49:34.957Z,-8.23
2022-12-04T15:52:15.592Z,-8.27
2022-12-04T15:54:52.013Z,-8.32
2022-12-04T15:57:28.507Z,-8.35
2022-12-04T16:00:05.472Z,-8.36
2022-12-04T16:02:42.876Z,-8.34
2022-12-04T16:05:24.519Z,-8.39
2022-12-04T16:07:59.957Z,-8.39
2022-12-04T16:10:35.580Z,-8.45
2022-12-04T16:13:29.410Z,-8.43
2022-12-04T16:16:04.308Z,-8.46
2022-12-04T16:18:39.292Z,-8.49
2022-12-04T16:21:15.633Z,-8.48
2022-12-04T16:23:48.633Z,-8.47
2022-12-04T16:26:22.835Z,-8.52
2022-12-04T16:28:55.903Z,-8.53
2022-12-04T16:31:30.193Z,-8.59
2022-12-04T16:34:03.657Z,-8.60
2022-12-04T16:36:37.446Z,-8.65
2022-12-04T16:39:10.818Z,-8.66
2022-12-04T16:41:43.967Z,-8.67
2022-12-04T16:44:18.480Z,-8.67
2022-12-04T16:46:53.014Z,-8.67
2022-12-04T16:49:26.212Z,-8.70
2022-12-04T16:52:03.801Z,-8.72
2022-12-04T16:54:37.856Z,-8.75
2022-12-04T16:57:11.577Z,-8.78
2022-12-04T16:59:44.623Z,-8.85
2022-12-04T17:02:20.995Z,-8.84
2022-12-04T17:05:04.417Z,-8.88
2022-12-04T17:07:37.979Z,-8.92
2022-12-04T17:10:12.805Z,-8.91
2022-12-04T17:12:46.579Z,-8.98
2022-12-04T17:15:19.662Z,-8.96
2022-12-04T17:17:53.140Z,-9.00
2022-12-04T17:20:27.413Z,-9.01
2022-12-04T17:23:00.987Z,-9.05
2022-12-04T17:25:34.105Z,-9.08
2022-12-04T17:28:07.699Z,-9.15
2022-12-04T17:30:40.818Z,-9.17
2022-12-04T17:33:13.851Z,-9.17
2022-12-04T17:35:47.762Z,-9.18
2022-12-04T17:38:20.897Z,-9.19
2022-12-04T17:41:02.390Z,-9.25
2022-12-04T17:43:36.216Z,-9.27
2022-12-04T17:46:13.285Z,-9.29
2022-12-04T17:48:46.977Z,-9.30
2022-12-04T17:51:22.204Z,-9.33
2022-12-04T17:53:55.607Z,-9.33
2022-12-04T17:56:28.812Z,-9.37
2022-12-04T17:59:02.000Z,-9.38
2022-12-04T18:01:35.755Z,-9.42
2022-12-04T18:04:09.753Z,-9.44
2022-12-04T18:06:44.835Z,-9.44
2022-12-04T18:09:18.927Z,-9.42
2022-12-04T18:11:52.267Z,-9.48
2022-12-04T18:14:25.648Z,-9.47
2022-12-04T18:17:01.250Z,-9.48
2022-12-04T18:19:35.556Z,-9.46
2022-12-04T18:22:08.741Z,-9.50
2022-12-04T18:24:42.136Z,-9.50
2022-12-04T18:27:15.343Z,-9.52
2022-12-04T18:29:48.473Z,-9.49
2022-12-04T18:32:21.557Z,-9.51
2022-12-04T18:34:55.714Z,-9.49
2022-12-04T18:37:28.872Z,-9.50
2022-12-04T18:40:06.507Z,-9.50
2022-12-04T18:42:37.034Z,-9.47
2022-12-04T18:45:12.317Z,-9.45
2022-12-04T18:47:48.208Z,-9.47
2022-12-04T18:50:22.011Z,-9.47
2022-12-04T18:53:00.906Z,-9.42
2022-12-04T18:55:33.755Z,-9.44
2022-12-04T18:58:08.004Z,-9.41
2022-12-04T19:00:42.605Z,-9.43
2022-12-04T19:03:16.864Z,-9.40
2022-12-04T19:05:51.891Z,-9.43
2022-12-04T19:08:31.361Z,-9.45
2022-12-04T19:11:07.720Z,-9.46
2022-12-04T19:13:41.577Z,-9.47
2022-12-04T19:16:16.495Z,-9.46
2022-12-04T19:18:50.345Z,-9.45
2022-12-04T19:21:24.357Z,-9.47
2022-12-04T19:24:00.843Z,-9.45
2022-12-04T19:26:35.810Z,-9.47
2022-12-04T19:29:10.318Z,-9.49
2022-12-04T19:31:44.505Z,-9.48
2022-12-04T19:34:18.529Z,-9.53
2022-12-04T19:36:52.367Z,-9.52
2022-12-04T19:39:26.069Z,-9.53
2022-12-04T19:42:00.041Z,-9.53
2022-12-04T19:44:48.297Z,-9.51
2022-12-04T19:47:12.503Z,-9.55
2022-12-04T19:49:46.676Z,-9.59
2022-12-04T19:52:20.457Z,-9.60
2022-12-04T19:54:54.311Z,-9.58
2022-12-04T19:57:28.233Z,-9.58
2022-12-04T20:00:02.468Z,-9.58
2022-12-04T20:02:38.876Z,-9.61
2022-12-04T20:05:13.181Z,-9.62
2022-12-04T20:07:47.011Z,-9.65
2022-12-04T20:10:21.453Z,-9.67
2022-12-04T20:12:55.507Z,-9.65
2022-12-04T20:15:29.331Z,-9.68
2022-12-04T20:18:03.314Z,-9.65
2022-12-04T20:20:37.129Z,-9.67
2022-12-04T20:23:10.847Z,-9.68
2022-12-04T20:25:44.538Z,-9.66
2022-12-04T20:28:18.655Z,-9.70
2022-12-04T20:30:53.235Z,-9.69
2022-12-04T20:33:27.003Z,-9.68
2022-12-04T20:36:02.564Z,-9.66
2022-12-04T20:38:36.667Z,-9.68
2022-12-04T20:41:13.468Z,-9.70
2022-12-04T20:43:48.462Z,-9.69
2022-12-04T20:46:24.342Z,-9.69
2022-12-04T20:48:58.929Z,-9.69
2022-12-04T20:51:35.024Z,-9.69
2022-12-04T20:54:10.347Z,-9.67
2022-12-04T20:56:44.158Z,-9.70
2022-12-04T20:59:19.767Z,-9.71
2022-12-04T21:01:54.833Z,-9.66
2022-12-04T21:04:28.722Z,-9.67
2022-12-04T21:07:02.555Z,-9.69
2022-12-04T21:09:36.623Z,-9.68
2022-12-04T21:12:29.249Z,-9.64
2022-12-04T21:15:20.555Z,-9.63
2022-12-04T21:17:55.365Z,-9.61
2022-12-04T21:20:29.375Z,-9.61
2022-12-04T21:23:03.183Z,-9.65
2022-12-04T21:25:37.480Z,-9.66
2022-12-04T21:28:11.398Z,-9.65
2022-12-04T21:30:45.197Z,-9.64
2022-12-04T21:33:18.890Z,-9.66
2022-12-04T21:35:52.888Z,-9.59
2022-12-04T21:38:26.804Z,-9.61
2022-12-04T21:41:00.694Z,-9.61
2022-12-04T21:43:34.501Z,-9.59
2022-12-04T21:46:09.821Z,-9.61
2022-12-04T21:48:43.050Z,-9.63
2022-12-04T21:51:39.942Z,-9.61
2022-12-04T21:53:50.965Z,-9.60
2022-12-04T21:56:24.144Z,-9.61
2022-12-04T21:58:57.376Z,-9.61
2022-12-04T22:01:30.933Z,-9.56
2022-12-04T22:04:04.195Z,-9.57
2022-12-04T22:06:38.034Z,-9.54
2022-12-04T22:09:13.452Z,-9.57
2022-12-04T22:11:46.869Z,-9.55
2022-12-04T22:14:20.165Z,-9.51
2022-12-04T22:16:54.372Z,-9.57
2022-12-04T22:19:27.362Z,-9.56
2022-12-04T22:22:00.470Z,-9.55
2022-12-04T22:24:34.178Z,-9.54
2022-12-04T22:27:09.599Z,-9.53
2022-12-04T22:30:02.257Z,-9.56
2022-12-04T22:32:19.459Z,-9.54
2022-12-04T22:34:53.088Z,-9.54
2022-12-04T22:37:28.244Z,-9.51
2022-12-04T22:40:02.301Z,-9.52
2022-12-04T22:42:36.050Z,-9.50
2022-12-04T22:45:11.292Z,-9.48
2022-12-04T22:47:45.299Z,-9.47
2022-12-04T22:50:20.127Z,-9.50
2022-12-04T22:52:53.933Z,-9.47
2022-12-04T22:55:27.628Z,-9.48
2022-12-04T22:58:01.355Z,-9.52
2022-12-04T23:00:35.138Z,-9.56
2022-12-04T23:03:08.928Z,-9.55
2022-12-04T23:05:42.787Z,-9.56
2022-12-04T23:08:16.460Z,-9.55
2022-12-04T23:10:50.283Z,-9.60
2022-12-04T23:13:24.077Z,-9.56
2022-12-04T23:15:57.952Z,-9.58
2022-12-04T23:18:31.973Z,-9.60
2022-12-04T23:21:07.592Z,-9.64
2022-12-04T23:23:43.612Z,-9.65
2022-12-04T23:26:18.966Z,-9.64
2022-12-04T23:28:53.129Z,-9.63
2022-12-04T23:31:27.253Z,-9.63
2022-12-04T23:34:01.991Z,-9.67
2022-12-04T23:36:35.893Z,-9.67
2022-12-04T23:39:09.832Z,-9.68
2022-12-04T23:41:43.651Z,-9.67
2022-12-04T23:44:17.518Z,-9.66
2022-12-04T23:46:51.356Z,-9.70
2022-12-04T23:49:25.209Z,-9.73
2022-12-04T23:51:59.045Z,-9.71
2022-12-04T23:54:35.151Z,-9.71
2022-12-04T23:57:09.626Z,-9.74
2022-12-04T23:59:43.586Z,-9.73
